Memphis, Tennessee
Current Conditions -  °F | °C
As of 2:30 AM on Sunday 23 Nov 2014 (Local Time) from KMEM Reporting Station
Overcast Overcast  
Wind Chill: 59°   Ceiling: 2000
Heat Index: 59°   Visibility: 10mi
Dew Point: 52°   Wind: 9mph
Humidity: 77%   Direction: 150°SSE
Pressure: 29.85"   Gusts: NA
Location:  35.15°N, 90.05°W
Report Text: KMEM 230830Z 15008KT 10SM OVC020 15/11 A2985 RMK AO2 $
Loading
Personal Weather Stations






























Interactive Weather Map New forecast layout! Learn more

10-Day Weather Forecast

Advertisements
Track Severe Weather on mobile